Empire State — WDE4431 — position and weather

sailwx.info

Track history (hours):
 
Tides and Currents Weather Stations Pressure Air Temp Water Temp Dewpoint Dewpoint Depression Visibility Wind Speed Wind Dir Waves Ship Positions

Empire State

Owner: Crowley Petroleum Services, Jacksonville, FL. More information available from US FCC via Universal Licensing System and Coast Guard Vessel Documentation Center.

Last reported at 2016-Aug-19 02:33 UTC. Time now 2016-Aug-27 09:57 UTC.
Position N 37°10' W 123°60'.
Warning: this ship's position is 8 days out of date.

Length 183 m; draft 10.9 m.

Type: Military. MMSI: 367353080.

Date/timePositionNaut miles runAvg speedWind from/ knotsBaromVisibWave heightAir tempDewpointWater temp
2016-Aug-19 02:33N 37°10' W 123°60'1414.0
2016-Aug-19 01:33N 37°16' W 123°44'1313.4
2016-Aug-19 00:33N 37°23' W 123°30'1413.7
2016-Aug-18 23:33N 37°29' W 123°15'1211.9
2016-Aug-18 22:33N 37°35' W 123°02'1010.3
2016-Aug-18 21:33N 37°41' W 122°51'1010.0
2016-Aug-18 20:33N 37°46' W 122°40'10 9.8
2016-Aug-18 19:33N 37°49' W 122°28'6 6.3
2016-Aug-18 18:33N 37°47' W 122°21'1 0.6
2016-Aug-18 17:32N 37°46' W 122°21'0 0.0
2016-Aug-18 16:32N 37°46' W 122°21'0 0.0
2016-Aug-18 15:32N 37°46' W 122°21'0 0.2
2016-Aug-18 14:32N 37°46' W 122°21'0 0.0
2016-Aug-18 13:32N 37°46' W 122°21'0 0.0
2016-Aug-18 12:32N 37°46' W 122°21'0 0.0
2016-Aug-18 11:32N 37°46' W 122°21'0 0.0
2016-Aug-18 10:32N 37°46' W 122°21'0 0.0
2016-Aug-18 09:32N 37°46' W 122°21'0 0.0
2016-Aug-18 08:34N 37°46' W 122°21'6 6.4
2016-Aug-18 07:34N 37°52' W 122°25'8 8.1
2016-Aug-18 06:34N 38°00' W 122°25'8 7.7
2016-Aug-18 05:34N 38°04' W 122°16'0 0.5
2016-Aug-18 04:33N 38°03' W 122°16'0 0.0
2016-Aug-18 03:15N 38°03' W 122°16'0 0.0
2016-Aug-18 02:33N 38°03' W 122°16'0 0.0
2016-Aug-18 01:33N 38°03' W 122°16'0 0.0
2016-Aug-17 22:21N 38°03' W 122°16'0 0.0
2016-Aug-17 21:33N 38°03' W 122°16'0 0.0
2016-Aug-17 20:33N 38°03' W 122°16'0 0.0
2016-Aug-17 18:09N 38°03' W 122°16'0 0.0
2016-Aug-17 13:27N 38°03' W 122°16'0 0.0
2016-Aug-17 11:33N 38°03' W 122°16'0 0.0
2016-Aug-17 10:09N 38°03' W 122°16'0 0.0
2016-Aug-17 09:33N 38°03' W 122°16'0 0.0
2016-Aug-17 04:27N 38°03' W 122°16'0 0.0
2016-Aug-17 02:27N 38°03' W 122°16'0 0.0
2016-Aug-17 01:09N 38°03' W 122°16'0 0.0
2016-Aug-17 00:33N 38°03' W 122°16'0 0.0
2016-Aug-16 23:33N 38°03' W 122°16'0 0.0
2016-Aug-16 22:33N 38°03' W 122°16'0 0.0
2016-Aug-16 21:21N 38°03' W 122°16'0 0.0
2016-Aug-16 19:33N 38°03' W 122°16'0 0.0
2016-Aug-16 12:09N 38°03' W 122°16'0 0.0
2016-Aug-16 11:33N 38°03' W 122°16'0 0.0
2016-Aug-16 10:33N 38°03' W 122°16'0 0.0
2016-Aug-16 09:33N 38°03' W 122°16'0 0.0
2016-Aug-16 08:33N 38°03' W 122°16'0 0.0
2016-Aug-16 06:09N 38°03' W 122°16'0 0.0
2016-Aug-16 03:15N 38°03' W 122°16'0 0.0
2016-Aug-16 02:33N 38°03' W 122°16'0 0.0
2016-Aug-16 01:33N 38°03' W 122°16'0 0.0
2016-Aug-16 00:27N 38°03' W 122°16'0 0.0
2016-Aug-15 23:21N 38°03' W 122°16'0 0.0
2016-Aug-15 22:33N 38°03' W 122°16'0 0.0
2016-Aug-15 20:15N 38°03' W 122°16'0 0.0
2016-Aug-15 16:33N 38°03' W 122°16'0 0.0
2016-Aug-15 15:33N 38°03' W 122°16'5 4.6
2016-Aug-15 14:34N 38°02' W 122°21'1111.1
2016-Aug-15 13:34N 37°52' W 122°25'8 7.2
2016-Aug-15 12:31N 37°45' W 122°20'0 0.1
2016-Aug-15 11:31N 37°45' W 122°20'0 0.0
2016-Aug-15 10:31N 37°45' W 122°20'0 0.0
2016-Aug-15 09:31N 37°45' W 122°20'0 0.0
2016-Aug-15 08:31N 37°45' W 122°20'0 0.0
2016-Aug-15 07:31N 37°45' W 122°20'0 0.1
2016-Aug-15 06:31N 37°45' W 122°20'0 0.1
2016-Aug-15 04:31N 37°45' W 122°20'0 0.0
2016-Aug-15 03:31N 37°45' W 122°20'0 0.0
2016-Aug-15 02:31N 37°45' W 122°20'0 0.0
2016-Aug-15 01:31N 37°45' W 122°20'0 0.0
2016-Aug-15 00:31N 37°45' W 122°20'0 0.1
2016-Aug-14 23:31N 37°45' W 122°20'0 0.1
2016-Aug-14 22:31N 37°45' W 122°20'0 0.1
2016-Aug-14 21:31N 37°45' W 122°20'0 0.0
2016-Aug-14 20:31N 37°45' W 122°20'0 0.0
2016-Aug-14 19:31N 37°45' W 122°20'0 0.1
2016-Aug-14 18:31N 37°45' W 122°20'0 0.1
2016-Aug-14 17:31N 37°45' W 122°20'0 0.0
2016-Aug-14 16:31N 37°45' W 122°20'0 0.0
2016-Aug-14 15:31N 37°45' W 122°20'0 0.0
2016-Aug-14 14:31N 37°45' W 122°20'0 0.0
2016-Aug-14 13:31N 37°45' W 122°20'0 0.0
2016-Aug-14 12:31N 37°45' W 122°20'0 0.2
2016-Aug-14 11:31N 37°45' W 122°20'0 0.1
2016-Aug-14 10:31N 37°45' W 122°20'0 0.0
2016-Aug-14 09:31N 37°45' W 122°20'0 0.0
2016-Aug-14 08:31N 37°45' W 122°20'0 0.0
2016-Aug-14 07:31N 37°45' W 122°20'0 0.0
2016-Aug-14 06:31N 37°45' W 122°20'0 0.1
2016-Aug-14 04:31N 37°45' W 122°20'0 0.0
2016-Aug-14 03:31N 37°45' W 122°20'0 0.1
2016-Aug-14 02:31N 37°45' W 122°20'0 0.0
2016-Aug-14 01:31N 37°45' W 122°20'0 0.0
2016-Aug-14 00:31N 37°45' W 122°20'0 0.0
2016-Aug-13 23:31N 37°45' W 122°20'0 0.2
2016-Aug-13 22:33N 37°45' W 122°20'7 7.1
2016-Aug-13 21:34N 37°49' W 122°27'1212.0
2016-Aug-13 20:33N 37°44' W 122°41'9 8.7
2016-Aug-13 19:33N 37°39' W 122°50'9 8.7
2016-Aug-13 18:33N 37°34' W 122°59'7 6.6
2016-Aug-13 17:33N 37°31' W 123°06'7 6.7
2016-Aug-13 16:33N 37°27' W 123°14'9 9.1
2016-Aug-13 15:33N 37°26' W 123°25'1010.4
2016-Aug-13 14:33N 37°33' W 123°35'10 9.5
2016-Aug-13 13:33N 37°39' W 123°44'1313.0
2016-Aug-13 12:33N 37°48' W 123°56'1514.5
2016-Aug-13 11:33N 37°58' W 124°09'1414.5
2016-Aug-13 10:33N 38°10' W 124°20'1514.6
2016-Aug-13 09:33N 38°22' W 124°31'1514.9
2016-Aug-13 08:33N 38°34' W 124°42'1815.1
2016-Aug-13 07:22N 38°48' W 124°56'  
Track history (hours):
 
Tides and Currents Weather Stations Pressure Air Temp Water Temp Dewpoint Dewpoint Depression Visibility Wind Speed Wind Dir Waves Ship Positions

Empire State

Owner: Crowley Petroleum Services, Jacksonville, FL. More information available from US FCC via Universal Licensing System and Coast Guard Vessel Documentation Center.

Last reported at 2016-Aug-19 02:33 UTC. Time now 2016-Aug-27 09:57 UTC.
Position N 37°10' W 123°60'.
Warning: this ship's position is 8 days out of date.

Length 183 m; draft 10.9 m.

Type: Military. MMSI: 367353080.

Date/timePositionNaut miles runAvg speedWind from/ knotsBaromVisibWave heightAir tempDewpointWater temp
2016-Aug-19 02:33N 37°10' W 123°60'1414.0
2016-Aug-19 01:33N 37°16' W 123°44'1313.4
2016-Aug-19 00:33N 37°23' W 123°30'1413.7
2016-Aug-18 23:33N 37°29' W 123°15'1211.9
2016-Aug-18 22:33N 37°35' W 123°02'1010.3
2016-Aug-18 21:33N 37°41' W 122°51'1010.0
2016-Aug-18 20:33N 37°46' W 122°40'10 9.8
2016-Aug-18 19:33N 37°49' W 122°28'6 6.3
2016-Aug-18 18:33N 37°47' W 122°21'1 0.6
2016-Aug-18 17:32N 37°46' W 122°21'0 0.0
2016-Aug-18 16:32N 37°46' W 122°21'0 0.0
2016-Aug-18 15:32N 37°46' W 122°21'0 0.2
2016-Aug-18 14:32N 37°46' W 122°21'0 0.0
2016-Aug-18 13:32N 37°46' W 122°21'0 0.0
2016-Aug-18 12:32N 37°46' W 122°21'0 0.0
2016-Aug-18 11:32N 37°46' W 122°21'0 0.0
2016-Aug-18 10:32N 37°46' W 122°21'0 0.0
2016-Aug-18 09:32N 37°46' W 122°21'0 0.0
2016-Aug-18 08:34N 37°46' W 122°21'6 6.4
2016-Aug-18 07:34N 37°52' W 122°25'8 8.1
2016-Aug-18 06:34N 38°00' W 122°25'8 7.7
2016-Aug-18 05:34N 38°04' W 122°16'0 0.5
2016-Aug-18 04:33N 38°03' W 122°16'0 0.0
2016-Aug-18 03:15N 38°03' W 122°16'0 0.0
2016-Aug-18 02:33N 38°03' W 122°16'0 0.0
2016-Aug-18 01:33N 38°03' W 122°16'0 0.0
2016-Aug-17 22:21N 38°03' W 122°16'0 0.0
2016-Aug-17 21:33N 38°03' W 122°16'0 0.0
2016-Aug-17 20:33N 38°03' W 122°16'0 0.0
2016-Aug-17 18:09N 38°03' W 122°16'0 0.0
2016-Aug-17 13:27N 38°03' W 122°16'0 0.0
2016-Aug-17 11:33N 38°03' W 122°16'0 0.0
2016-Aug-17 10:09N 38°03' W 122°16'0 0.0
2016-Aug-17 09:33N 38°03' W 122°16'0 0.0
2016-Aug-17 04:27N 38°03' W 122°16'0 0.0
2016-Aug-17 02:27N 38°03' W 122°16'0 0.0
2016-Aug-17 01:09N 38°03' W 122°16'0 0.0
2016-Aug-17 00:33N 38°03' W 122°16'0 0.0
2016-Aug-16 23:33N 38°03' W 122°16'0 0.0
2016-Aug-16 22:33N 38°03' W 122°16'0 0.0
2016-Aug-16 21:21N 38°03' W 122°16'0 0.0
2016-Aug-16 19:33N 38°03' W 122°16'0 0.0
2016-Aug-16 12:09N 38°03' W 122°16'0 0.0
2016-Aug-16 11:33N 38°03' W 122°16'0 0.0
2016-Aug-16 10:33N 38°03' W 122°16'0 0.0
2016-Aug-16 09:33N 38°03' W 122°16'0 0.0
2016-Aug-16 08:33N 38°03' W 122°16'0 0.0
2016-Aug-16 06:09N 38°03' W 122°16'0 0.0
2016-Aug-16 03:15N 38°03' W 122°16'0 0.0
2016-Aug-16 02:33N 38°03' W 122°16'0 0.0
2016-Aug-16 01:33N 38°03' W 122°16'0 0.0
2016-Aug-16 00:27N 38°03' W 122°16'0 0.0
2016-Aug-15 23:21N 38°03' W 122°16'0 0.0
2016-Aug-15 22:33N 38°03' W 122°16'0 0.0
2016-Aug-15 20:15N 38°03' W 122°16'0 0.0
2016-Aug-15 16:33N 38°03' W 122°16'0 0.0
2016-Aug-15 15:33N 38°03' W 122°16'5 4.6
2016-Aug-15 14:34N 38°02' W 122°21'1111.1
2016-Aug-15 13:34N 37°52' W 122°25'8 7.2
2016-Aug-15 12:31N 37°45' W 122°20'0 0.1
2016-Aug-15 11:31N 37°45' W 122°20'0 0.0
2016-Aug-15 10:31N 37°45' W 122°20'0 0.0
2016-Aug-15 09:31N 37°45' W 122°20'0 0.0
2016-Aug-15 08:31N 37°45' W 122°20'0 0.0
2016-Aug-15 07:31N 37°45' W 122°20'0 0.1
2016-Aug-15 06:31N 37°45' W 122°20'0 0.1
2016-Aug-15 04:31N 37°45' W 122°20'0 0.0
2016-Aug-15 03:31N 37°45' W 122°20'0 0.0
2016-Aug-15 02:31N 37°45' W 122°20'0 0.0
2016-Aug-15 01:31N 37°45' W 122°20'0 0.0
2016-Aug-15 00:31N 37°45' W 122°20'0 0.1
2016-Aug-14 23:31N 37°45' W 122°20'0 0.1
2016-Aug-14 22:31N 37°45' W 122°20'0 0.1
2016-Aug-14 21:31N 37°45' W 122°20'0 0.0
2016-Aug-14 20:31N 37°45' W 122°20'0 0.0
2016-Aug-14 19:31N 37°45' W 122°20'0 0.1
2016-Aug-14 18:31N 37°45' W 122°20'0 0.1
2016-Aug-14 17:31N 37°45' W 122°20'0 0.0
2016-Aug-14 16:31N 37°45' W 122°20'0 0.0
2016-Aug-14 15:31N 37°45' W 122°20'0 0.0
2016-Aug-14 14:31N 37°45' W 122°20'0 0.0
2016-Aug-14 13:31N 37°45' W 122°20'0 0.0
2016-Aug-14 12:31N 37°45' W 122°20'0 0.2
2016-Aug-14 11:31N 37°45' W 122°20'0 0.1
2016-Aug-14 10:31N 37°45' W 122°20'0 0.0
2016-Aug-14 09:31N 37°45' W 122°20'0 0.0
2016-Aug-14 08:31N 37°45' W 122°20'0 0.0
2016-Aug-14 07:31N 37°45' W 122°20'0 0.0
2016-Aug-14 06:31N 37°45' W 122°20'0 0.1
2016-Aug-14 04:31N 37°45' W 122°20'0 0.0
2016-Aug-14 03:31N 37°45' W 122°20'0 0.1
2016-Aug-14 02:31N 37°45' W 122°20'0 0.0
2016-Aug-14 01:31N 37°45' W 122°20'0 0.0
2016-Aug-14 00:31N 37°45' W 122°20'0 0.0
2016-Aug-13 23:31N 37°45' W 122°20'0 0.2
2016-Aug-13 22:33N 37°45' W 122°20'7 7.1
2016-Aug-13 21:34N 37°49' W 122°27'1212.0
2016-Aug-13 20:33N 37°44' W 122°41'9 8.7
2016-Aug-13 19:33N 37°39' W 122°50'9 8.7
2016-Aug-13 18:33N 37°34' W 122°59'7 6.6
2016-Aug-13 17:33N 37°31' W 123°06'7 6.7
2016-Aug-13 16:33N 37°27' W 123°14'9 9.1
2016-Aug-13 15:33N 37°26' W 123°25'1010.4
2016-Aug-13 14:33N 37°33' W 123°35'10 9.5
2016-Aug-13 13:33N 37°39' W 123°44'1313.0
2016-Aug-13 12:33N 37°48' W 123°56'1514.5
2016-Aug-13 11:33N 37°58' W 124°09'1414.5
2016-Aug-13 10:33N 38°10' W 124°20'1514.6
2016-Aug-13 09:33N 38°22' W 124°31'1514.9
2016-Aug-13 08:33N 38°34' W 124°42'1815.1
2016-Aug-13 07:22N 38°48' W 124°56'  

Dump ship's entire track history